PWSweather.com
Personal Weather Stations
Station Observations
SWHWX01
St AppolinardFR 38160

St AppolinardFR 38160

Lat: 45.191, Lon: 5.268

Elevation: 1460

Station Type: Davis Vantage Pro2 Plus

www.sweetwebhome.com/?show=wxindex

High Low Average
Temperature 52.5°F11.4°C 45.4°F7.4°C 48.5°F9.2°C
Dew Point 48.9°F9.4°C 43.6°F6.4°C 46.3°F7.9°C
Winds 11.9 mph 19.2 kmh Calm Calm 3.0 mph SW4.8 kmh SW
Wind Gusts 18.0 mph29.0 kmh -- 5.0 mph8.0 kmh
Humidity 96% 80% 92%
Pressure 30.20 in1022.7 mb 30.06 in1017.9 mb -
Precipitation 0.02 in0.5 mm - -
Hour Temp Dew Point Humidity Winds Wind Gusts Pressure Precip Precip Rate Daily Precip Total
12:00 AM 48.3°F9.1°C 47.0°F8.3°C 95% Calm Calm -- 30.07 in1018.3 mb - 0.00 in0.0 mm 0.00 in0.0 mm
12:30 AM 48.2°F9.0°C 47.1°F8.4°C 96% Calm Calm -- 30.07 in1018.3 mb - 0.00 in0.0 mm 0.00 in0.0 mm
01:00 AM 48.3°F9.1°C 47.2°F8.4°C 96% Calm Calm -- 30.07 in1018.3 mb - 0.00 in0.0 mm 0.00 in0.0 mm
01:30 AM 48.4°F9.1°C 47.3°F8.5°C 96% 0.6 mph SW1.0 kmh SW 1.0 mph1.6 kmh 30.06 in1017.9 mb - 0.00 in0.0 mm 0.00 in0.0 mm
02:00 AM 48.3°F9.1°C 47.2°F8.4°C 96% Calm Calm -- 30.07 in1018.3 mb - 0.00 in0.0 mm 0.00 in0.0 mm
02:30 AM 48.4°F9.1°C 47.3°F8.5°C 96% Calm Calm -- 30.07 in1018.3 mb - 0.00 in0.0 mm 0.00 in0.0 mm
03:00 AM 48.1°F8.9°C 47.0°F8.3°C 96% Calm Calm -- 30.07 in1018.3 mb - 0.00 in0.0 mm 0.00 in0.0 mm
03:30 AM 47.7°F8.7°C 46.6°F8.1°C 96% Calm Calm -- 30.07 in1018.3 mb - 0.00 in0.0 mm 0.00 in0.0 mm
04:00 AM 47.5°F8.6°C 46.5°F8.1°C 96% Calm Calm -- 30.06 in1017.9 mb - 0.00 in0.0 mm 0.00 in0.0 mm
04:30 AM 47.3°F8.5°C 46.2°F7.9°C 96% Calm Calm -- 30.06 in1017.9 mb - 0.00 in0.0 mm 0.00 in0.0 mm
05:00 AM 47.8°F8.8°C 46.7°F8.2°C 96% Calm Calm 1.0 mph1.6 kmh 30.07 in1018.3 mb - 0.00 in0.0 mm 0.00 in0.0 mm
05:30 AM 47.7°F8.7°C 46.6°F8.1°C 96% Calm Calm -- 30.06 in1017.9 mb - 0.00 in0.0 mm 0.00 in0.0 mm
06:00 AM 47.1°F8.4°C 46.0°F7.8°C 96% Calm Calm 1.0 mph1.6 kmh 30.06 in1017.9 mb - 0.00 in0.0 mm 0.00 in0.0 mm
06:30 AM 46.8°F8.2°C 45.7°F7.6°C 96% 1.8 mph SW2.9 kmh SW 3.0 mph4.8 kmh 30.07 in1018.3 mb - 0.00 in0.0 mm 0.00 in0.0 mm
07:00 AM 47.0°F8.3°C 45.9°F7.7°C 96% 2.4 mph SW3.9 kmh SW 3.0 mph4.8 kmh 30.07 in1018.3 mb - 0.00 in0.0 mm 0.00 in0.0 mm
07:30 AM 46.2°F7.9°C 45.1°F7.3°C 96% Calm Calm -- 30.09 in1019.0 mb - 0.00 in0.0 mm 0.00 in0.0 mm
08:00 AM 45.6°F7.6°C 44.5°F6.9°C 96% 0.6 mph SW1.0 kmh SW 2.0 mph3.2 kmh 30.10 in1019.3 mb - 0.00 in0.0 mm 0.00 in0.0 mm
08:30 AM 45.4°F7.4°C 44.4°F6.9°C 96% 0.4 mph SW0.6 kmh SW -- 30.11 in1019.6 mb - 0.00 in0.0 mm 0.00 in0.0 mm
09:00 AM 46.1°F7.8°C 45.0°F7.2°C 96% Calm Calm -- 30.12 in1020.0 mb - 0.01 in0.3 mm 0.01 in0.3 mm
09:30 AM 46.4°F8.0°C 45.3°F7.4°C 96% Calm Calm -- 30.12 in1020.0 mb - 0.00 in0.0 mm 0.01 in0.3 mm
10:00 AM 47.7°F8.7°C 46.6°F8.1°C 96% Calm Calm -- 30.13 in1020.3 mb - 0.00 in0.0 mm 0.01 in0.3 mm
10:30 AM 48.0°F8.9°C 46.9°F8.3°C 96% Calm Calm -- 30.13 in1020.3 mb - 0.00 in0.0 mm 0.01 in0.3 mm
11:00 AM 48.2°F9.0°C 47.1°F8.4°C 96% Calm Calm -- 30.14 in1020.7 mb - 0.00 in0.0 mm 0.01 in0.3 mm
11:30 AM 48.0°F8.9°C 46.9°F8.3°C 96% Calm Calm -- 30.14 in1020.7 mb - 0.00 in0.0 mm 0.01 in0.3 mm
12:00 PM 48.9°F9.4°C 47.8°F8.8°C 96% Calm Calm -- 30.14 in1020.7 mb - 0.00 in0.0 mm 0.01 in0.3 mm
12:30 PM 49.9°F9.9°C 48.5°F9.2°C 95% Calm Calm -- 30.14 in1020.7 mb - 0.00 in0.0 mm 0.01 in0.3 mm
01:00 PM 50.5°F10.3°C 48.6°F9.2°C 93% Calm Calm -- 30.14 in1020.7 mb - 0.00 in0.0 mm 0.01 in0.3 mm
01:30 PM 51.1°F10.6°C 48.9°F9.4°C 92% 0.1 mph NE0.2 kmh NE 1.0 mph1.6 kmh 30.13 in1020.3 mb - 0.00 in0.0 mm 0.01 in0.3 mm
02:00 PM 51.4°F10.8°C 48.3°F9.1°C 89% 1.1 mph NNE1.8 kmh NNE 6.0 mph9.7 kmh 30.14 in1020.7 mb - 0.00 in0.0 mm 0.01 in0.3 mm
02:30 PM 51.9°F11.1°C 48.4°F9.1°C 88% 1.3 mph NE2.1 kmh NE 3.0 mph4.8 kmh 30.14 in1020.7 mb - 0.00 in0.0 mm 0.01 in0.3 mm
03:00 PM 52.5°F11.4°C 48.7°F9.3°C 87% 3.6 mph N5.8 kmh N 9.0 mph14.5 kmh 30.14 in1020.7 mb - 0.00 in0.0 mm 0.01 in0.3 mm
03:30 PM 52.2°F11.2°C 48.4°F9.1°C 87% 0.8 mph NNE1.3 kmh NNE 4.0 mph6.4 kmh 30.14 in1020.7 mb - 0.00 in0.0 mm 0.01 in0.3 mm
04:00 PM 52.1°F11.2°C 47.7°F8.7°C 85% 0.8 mph ENE1.3 kmh ENE 4.0 mph6.4 kmh 30.15 in1021.0 mb - 0.00 in0.0 mm 0.01 in0.3 mm
04:30 PM 51.9°F11.1°C 47.5°F8.6°C 85% 2.6 mph NE4.2 kmh NE 6.0 mph9.7 kmh 30.15 in1021.0 mb - 0.00 in0.0 mm 0.01 in0.3 mm
05:00 PM 51.4°F10.8°C 47.0°F8.3°C 85% 2.2 mph NE3.5 kmh NE 3.0 mph4.8 kmh 30.15 in1021.0 mb - 0.00 in0.0 mm 0.01 in0.3 mm
05:30 PM 50.9°F10.5°C 46.2°F7.9°C 84% 5.7 mph NNE9.2 kmh NNE 10.0 mph16.1 kmh 30.16 in1021.3 mb - 0.01 in0.3 mm 0.02 in0.5 mm
06:00 PM 50.5°F10.3°C 44.6°F7.0°C 80% 8.8 mph NNW14.2 kmh NNW 13.0 mph20.9 kmh 30.16 in1021.3 mb - 0.00 in0.0 mm 0.02 in0.5 mm
06:30 PM 49.4°F9.7°C 45.4°F7.4°C 86% 10.1 mph N16.3 kmh N 13.0 mph20.9 kmh 30.18 in1022.0 mb - 0.00 in0.0 mm 0.02 in0.5 mm
07:00 PM 48.8°F9.3°C 45.4°F7.4°C 88% 6.4 mph N10.3 kmh N 13.0 mph20.9 kmh 30.19 in1022.4 mb - 0.00 in0.0 mm 0.02 in0.5 mm
07:30 PM 48.2°F9.0°C 45.1°F7.3°C 89% 8.2 mph NNW13.2 kmh NNW 14.0 mph22.5 kmh 30.19 in1022.4 mb - 0.00 in0.0 mm 0.02 in0.5 mm
08:00 PM 48.0°F8.9°C 44.6°F7.0°C 88% 10.7 mph NNW17.2 kmh NNW 16.0 mph25.7 kmh 30.19 in1022.4 mb - 0.00 in0.0 mm 0.02 in0.5 mm
08:30 PM 47.9°F8.8°C 44.2°F6.8°C 87% 9.7 mph N15.6 kmh N 13.0 mph20.9 kmh 30.19 in1022.4 mb - 0.00 in0.0 mm 0.02 in0.5 mm
09:00 PM 47.7°F8.7°C 44.0°F6.7°C 87% 11.0 mph NW17.7 kmh NW 18.0 mph29.0 kmh 30.19 in1022.4 mb - 0.00 in0.0 mm 0.02 in0.5 mm
09:30 PM 47.5°F8.6°C 44.1°F6.7°C 88% 10.3 mph NNW16.6 kmh NNW 14.0 mph22.5 kmh 30.20 in1022.7 mb - 0.00 in0.0 mm 0.02 in0.5 mm
10:00 PM 47.2°F8.4°C 44.1°F6.7°C 89% 10.8 mph N17.4 kmh N 12.0 mph19.3 kmh 30.20 in1022.7 mb - 0.00 in0.0 mm 0.02 in0.5 mm
10:30 PM 47.0°F8.3°C 44.2°F6.8°C 90% 9.1 mph N14.6 kmh N 13.0 mph20.9 kmh 30.20 in1022.7 mb - 0.00 in0.0 mm 0.02 in0.5 mm
11:00 PM 46.8°F8.2°C 44.0°F6.7°C 90% 11.9 mph N19.2 kmh N 18.0 mph29.0 kmh 30.20 in1022.7 mb - 0.00 in0.0 mm 0.02 in0.5 mm
11:30 PM 46.4°F8.0°C 43.6°F6.4°C 90% 5.9 mph NNW9.5 kmh NNW 12.0 mph19.3 kmh 30.20 in1022.7 mb - 0.00 in0.0 mm 0.02 in0.5 mm